sensor_id;sensor_type;location;lat;lon;timestamp;P1;durP1;ratioP1;P2;durP2;ratioP2
13951;SDS011;39535;52.192;9.886;2023-12-04T00:00:40;11.67;;;10.47;;
13951;SDS011;39535;52.192;9.886;2023-12-04T00:03:07;11.83;;;10.63;;
13951;SDS011;39535;52.192;9.886;2023-12-04T00:05:33;12.80;;;11.23;;
13951;SDS011;39535;52.192;9.886;2023-12-04T00:07:59;11.40;;;10.30;;
13951;SDS011;39535;52.192;9.886;2023-12-04T00:10:26;12.20;;;10.90;;
13951;SDS011;39535;52.192;9.886;2023-12-04T00:12:52;11.00;;;9.93;;
13951;SDS011;39535;52.192;9.886;2023-12-04T00:15:19;11.27;;;10.03;;
13951;SDS011;39535;52.192;9.886;2023-12-04T00:17:46;10.73;;;9.70;;
13951;SDS011;39535;52.192;9.886;2023-12-04T00:20:13;11.17;;;9.40;;
13951;SDS011;39535;52.192;9.886;2023-12-04T00:22:39;11.00;;;9.80;;
13951;SDS011;39535;52.192;9.886;2023-12-04T00:25:06;11.07;;;9.97;;
13951;SDS011;39535;52.192;9.886;2023-12-04T00:27:32;10.37;;;9.37;;
13951;SDS011;39535;52.192;9.886;2023-12-04T00:29:59;11.43;;;10.33;;
13951;SDS011;39535;52.192;9.886;2023-12-04T00:32:25;11.90;;;9.47;;
13951;SDS011;39535;52.192;9.886;2023-12-04T00:34:53;10.97;;;9.77;;
13951;SDS011;39535;52.192;9.886;2023-12-04T00:37:19;10.73;;;9.73;;
13951;SDS011;39535;52.192;9.886;2023-12-04T00:39:45;10.83;;;9.67;;
13951;SDS011;39535;52.192;9.886;2023-12-04T00:42:12;11.40;;;9.63;;
13951;SDS011;39535;52.192;9.886;2023-12-04T00:44:41;10.30;;;9.30;;
13951;SDS011;39535;52.192;9.886;2023-12-04T00:47:08;10.50;;;9.50;;
13951;SDS011;39535;52.192;9.886;2023-12-04T00:49:36;10.57;;;9.47;;
13951;SDS011;39535;52.192;9.886;2023-12-04T00:52:04;11.17;;;10.03;;
13951;SDS011;39535;52.192;9.886;2023-12-04T00:54:30;12.10;;;10.80;;
13951;SDS011;39535;52.192;9.886;2023-12-04T00:57:00;10.77;;;9.67;;
13951;SDS011;39535;52.192;9.886;2023-12-04T00:59:26;11.77;;;10.57;;
13951;SDS011;39535;52.192;9.886;2023-12-04T01:01:53;13.10;;;10.90;;
13951;SDS011;39535;52.192;9.886;2023-12-04T01:04:21;10.87;;;9.77;;
13951;SDS011;39535;52.192;9.886;2023-12-04T01:06:48;13.80;;;10.50;;
13951;SDS011;39535;52.192;9.886;2023-12-04T01:09:18;12.17;;;10.97;;
13951;SDS011;39535;52.192;9.886;2023-12-04T01:11:49;11.40;;;10.17;;
13951;SDS011;39535;52.192;9.886;2023-12-04T01:14:15;12.33;;;10.20;;
13951;SDS011;39535;52.192;9.886;2023-12-04T01:16:42;10.70;;;9.70;;
13951;SDS011;39535;52.192;9.886;2023-12-04T01:19:09;11.57;;;10.37;;
13951;SDS011;39535;52.192;9.886;2023-12-04T01:21:36;10.70;;;9.70;;
13951;SDS011;39535;52.192;9.886;2023-12-04T01:24:03;12.13;;;10.77;;
13951;SDS011;39535;52.192;9.886;2023-12-04T01:26:31;10.77;;;9.70;;
13951;SDS011;39535;52.192;9.886;2023-12-04T01:28:58;10.77;;;9.63;;
13951;SDS011;39535;52.192;9.886;2023-12-04T01:31:25;10.80;;;9.40;;
13951;SDS011;39535;52.192;9.886;2023-12-04T01:33:51;11.40;;;10.17;;
13951;SDS011;39535;52.192;9.886;2023-12-04T01:36:17;10.97;;;9.87;;
13951;SDS011;39535;52.192;9.886;2023-12-04T01:38:44;10.73;;;9.63;;
13951;SDS011;39535;52.192;9.886;2023-12-04T01:41:11;13.13;;;10.53;;
13951;SDS011;39535;52.192;9.886;2023-12-04T01:43:39;11.03;;;9.93;;
13951;SDS011;39535;52.192;9.886;2023-12-04T01:46:05;11.00;;;9.90;;
13951;SDS011;39535;52.192;9.886;2023-12-04T01:48:32;9.53;;;8.53;;
13951;SDS011;39535;52.192;9.886;2023-12-04T01:51:03;11.17;;;10.07;;
13951;SDS011;39535;52.192;9.886;2023-12-04T01:53:33;11.00;;;9.87;;
13951;SDS011;39535;52.192;9.886;2023-12-04T01:56:02;10.13;;;9.00;;
13951;SDS011;39535;52.192;9.886;2023-12-04T01:58:29;11.87;;;10.60;;
13951;SDS011;39535;52.192;9.886;2023-12-04T02:00:59;10.97;;;9.87;;
13951;SDS011;39535;52.192;9.886;2023-12-04T02:03:25;11.03;;;9.87;;
13951;SDS011;39535;52.192;9.886;2023-12-04T02:05:51;10.10;;;8.60;;
13951;SDS011;39535;52.192;9.886;2023-12-04T02:08:18;11.53;;;9.43;;
13951;SDS011;39535;52.192;9.886;2023-12-04T02:10:44;10.87;;;9.77;;
13951;SDS011;39535;52.192;9.886;2023-12-04T02:13:11;10.60;;;9.50;;
13951;SDS011;39535;52.192;9.886;2023-12-04T02:15:37;10.27;;;9.20;;
13951;SDS011;39535;52.192;9.886;2023-12-04T02:18:09;11.07;;;9.97;;
13951;SDS011;39535;52.192;9.886;2023-12-04T02:20:36;11.07;;;8.43;;
13951;SDS011;39535;52.192;9.886;2023-12-04T02:23:08;11.37;;;10.10;;
13951;SDS011;39535;52.192;9.886;2023-12-04T02:25:36;10.73;;;9.63;;
13951;SDS011;39535;52.192;9.886;2023-12-04T02:28:05;10.80;;;9.70;;
13951;SDS011;39535;52.192;9.886;2023-12-04T02:30:32;10.10;;;9.10;;
13951;SDS011;39535;52.192;9.886;2023-12-04T02:33:03;11.57;;;10.33;;
13951;SDS011;39535;52.192;9.886;2023-12-04T02:35:32;10.77;;;9.67;;
13951;SDS011;39535;52.192;9.886;2023-12-04T02:38:00;10.30;;;8.73;;
13951;SDS011;39535;52.192;9.886;2023-12-04T02:40:27;10.43;;;9.33;;
13951;SDS011;39535;52.192;9.886;2023-12-04T02:42:56;10.43;;;9.33;;
13951;SDS011;39535;52.192;9.886;2023-12-04T02:45:25;10.50;;;9.50;;
13951;SDS011;39535;52.192;9.886;2023-12-04T02:47:51;11.20;;;9.97;;
13951;SDS011;39535;52.192;9.886;2023-12-04T02:50:17;10.70;;;9.67;;
13951;SDS011;39535;52.192;9.886;2023-12-04T02:52:44;12.43;;;10.43;;
13951;SDS011;39535;52.192;9.886;2023-12-04T02:55:11;11.27;;;10.03;;
13951;SDS011;39535;52.192;9.886;2023-12-04T02:57:37;10.67;;;9.57;;
13951;SDS011;39535;52.192;9.886;2023-12-04T03:00:06;12.00;;;10.80;;
13951;SDS011;39535;52.192;9.886;2023-12-04T03:02:34;10.10;;;9.03;;
13951;SDS011;39535;52.192;9.886;2023-12-04T03:05:01;10.47;;;9.37;;
13951;SDS011;39535;52.192;9.886;2023-12-04T03:07:28;11.57;;;9.80;;
13951;SDS011;39535;52.192;9.886;2023-12-04T03:09:55;10.17;;;9.07;;
13951;SDS011;39535;52.192;9.886;2023-12-04T03:12:22;10.50;;;9.40;;
13951;SDS011;39535;52.192;9.886;2023-12-04T03:14:48;10.53;;;9.43;;
13951;SDS011;39535;52.192;9.886;2023-12-04T03:17:16;11.47;;;9.67;;
13951;SDS011;39535;52.192;9.886;2023-12-04T03:19:43;10.13;;;9.13;;
13951;SDS011;39535;52.192;9.886;2023-12-04T03:22:09;10.10;;;9.10;;
13951;SDS011;39535;52.192;9.886;2023-12-04T03:24:36;10.33;;;9.23;;
13951;SDS011;39535;52.192;9.886;2023-12-04T03:27:02;10.63;;;9.60;;
13951;SDS011;39535;52.192;9.886;2023-12-04T03:29:29;10.13;;;9.07;;
13951;SDS011;39535;52.192;9.886;2023-12-04T03:31:59;11.10;;;10.00;;
13951;SDS011;39535;52.192;9.886;2023-12-04T03:34:28;10.97;;;8.67;;
13951;SDS011;39535;52.192;9.886;2023-12-04T03:36:55;10.67;;;8.50;;
13951;SDS011;39535;52.192;9.886;2023-12-04T03:39:21;10.00;;;8.93;;
13951;SDS011;39535;52.192;9.886;2023-12-04T03:41:47;9.57;;;8.57;;
13951;SDS011;39535;52.192;9.886;2023-12-04T03:44:14;10.97;;;8.43;;
13951;SDS011;39535;52.192;9.886;2023-12-04T03:46:40;10.13;;;9.13;;
13951;SDS011;39535;52.192;9.886;2023-12-04T03:49:07;8.67;;;7.87;;
13951;SDS011;39535;52.192;9.886;2023-12-04T03:51:35;9.50;;;8.50;;
13951;SDS011;39535;52.192;9.886;2023-12-04T03:54:02;9.53;;;8.57;;
13951;SDS011;39535;52.192;9.886;2023-12-04T03:56:28;10.00;;;9.00;;
13951;SDS011;39535;52.192;9.886;2023-12-04T03:58:55;9.60;;;8.70;;
13951;SDS011;39535;52.192;9.886;2023-12-04T04:01:21;9.43;;;8.53;;
13951;SDS011;39535;52.192;9.886;2023-12-04T04:03:50;9.80;;;8.80;;
13951;SDS011;39535;52.192;9.886;2023-12-04T04:06:16;8.73;;;7.83;;
13951;SDS011;39535;52.192;9.886;2023-12-04T04:08:47;8.40;;;7.60;;
13951;SDS011;39535;52.192;9.886;2023-12-04T04:11:17;9.20;;;8.30;;
13951;SDS011;39535;52.192;9.886;2023-12-04T04:13:43;10.93;;;7.63;;
13951;SDS011;39535;52.192;9.886;2023-12-04T04:16:12;9.40;;;8.40;;
13951;SDS011;39535;52.192;9.886;2023-12-04T04:18:40;8.27;;;7.47;;
13951;SDS011;39535;52.192;9.886;2023-12-04T04:21:07;8.37;;;7.57;;
13951;SDS011;39535;52.192;9.886;2023-12-04T04:23:34;9.53;;;8.53;;
13951;SDS011;39535;52.192;9.886;2023-12-04T04:26:03;9.00;;;8.13;;
13951;SDS011;39535;52.192;9.886;2023-12-04T04:28:29;8.37;;;7.53;;
13951;SDS011;39535;52.192;9.886;2023-12-04T04:30:56;8.33;;;7.43;;
13951;SDS011;39535;52.192;9.886;2023-12-04T04:33:22;9.50;;;8.50;;
13951;SDS011;39535;52.192;9.886;2023-12-04T04:35:48;8.90;;;8.00;;
13951;SDS011;39535;52.192;9.886;2023-12-04T04:38:15;8.50;;;7.57;;
13951;SDS011;39535;52.192;9.886;2023-12-04T04:40:41;9.00;;;8.10;;
13951;SDS011;39535;52.192;9.886;2023-12-04T04:43:10;9.40;;;8.50;;
13951;SDS011;39535;52.192;9.886;2023-12-04T04:45:37;8.50;;;7.70;;
13951;SDS011;39535;52.192;9.886;2023-12-04T04:48:09;8.17;;;7.37;;
13951;SDS011;39535;52.192;9.886;2023-12-04T04:50:36;9.57;;;8.50;;
13951;SDS011;39535;52.192;9.886;2023-12-04T04:53:02;8.70;;;7.90;;
13951;SDS011;39535;52.192;9.886;2023-12-04T04:55:29;8.03;;;7.23;;
13951;SDS011;39535;52.192;9.886;2023-12-04T04:57:57;8.73;;;7.73;;
13951;SDS011;39535;52.192;9.886;2023-12-04T05:00:26;10.63;;;9.07;;
13951;SDS011;39535;52.192;9.886;2023-12-04T05:02:52;9.47;;;8.53;;
13951;SDS011;39535;52.192;9.886;2023-12-04T05:05:18;8.30;;;7.50;;
13951;SDS011;39535;52.192;9.886;2023-12-04T05:07:46;8.97;;;8.17;;
13951;SDS011;39535;52.192;9.886;2023-12-04T05:10:12;10.07;;;9.13;;
13951;SDS011;39535;52.192;9.886;2023-12-04T05:12:38;8.70;;;7.43;;
13951;SDS011;39535;52.192;9.886;2023-12-04T05:15:08;9.80;;;8.73;;
13951;SDS011;39535;52.192;9.886;2023-12-04T05:17:37;9.40;;;8.50;;
13951;SDS011;39535;52.192;9.886;2023-12-04T05:20:04;9.50;;;8.63;;
13951;SDS011;39535;52.192;9.886;2023-12-04T05:22:39;9.67;;;8.73;;
13951;SDS011;39535;52.192;9.886;2023-12-04T05:25:08;8.37;;;7.57;;
13951;SDS011;39535;52.192;9.886;2023-12-04T05:27:34;9.23;;;8.33;;
13951;SDS011;39535;52.192;9.886;2023-12-04T05:30:00;8.73;;;7.83;;
13951;SDS011;39535;52.192;9.886;2023-12-04T05:32:27;10.07;;;8.97;;
13951;SDS011;39535;52.192;9.886;2023-12-04T05:34:56;9.17;;;8.27;;
13951;SDS011;39535;52.192;9.886;2023-12-04T05:37:22;8.90;;;8.10;;
13951;SDS011;39535;52.192;9.886;2023-12-04T05:39:48;8.77;;;7.97;;
13951;SDS011;39535;52.192;9.886;2023-12-04T05:42:14;8.50;;;7.70;;
13951;SDS011;39535;52.192;9.886;2023-12-04T05:44:41;7.97;;;7.17;;
13951;SDS011;39535;52.192;9.886;2023-12-04T05:47:07;9.37;;;8.57;;
13951;SDS011;39535;52.192;9.886;2023-12-04T05:49:34;9.00;;;8.10;;
13951;SDS011;39535;52.192;9.886;2023-12-04T05:52:02;9.57;;;8.67;;
13951;SDS011;39535;52.192;9.886;2023-12-04T05:54:29;10.03;;;9.03;;
13951;SDS011;39535;52.192;9.886;2023-12-04T05:56:55;9.23;;;8.33;;
13951;SDS011;39535;52.192;9.886;2023-12-04T05:59:21;8.77;;;7.90;;
13951;SDS011;39535;52.192;9.886;2023-12-04T06:01:48;8.67;;;7.87;;
13951;SDS011;39535;52.192;9.886;2023-12-04T06:04:14;9.30;;;8.40;;
13951;SDS011;39535;52.192;9.886;2023-12-04T06:06:40;8.57;;;7.67;;
13951;SDS011;39535;52.192;9.886;2023-12-04T06:09:08;9.67;;;8.77;;
13951;SDS011;39535;52.192;9.886;2023-12-04T06:11:34;10.20;;;9.20;;
13951;SDS011;39535;52.192;9.886;2023-12-04T06:14:00;9.23;;;8.33;;
13951;SDS011;39535;52.192;9.886;2023-12-04T06:16:26;9.23;;;8.43;;
13951;SDS011;39535;52.192;9.886;2023-12-04T06:18:52;9.10;;;8.20;;
13951;SDS011;39535;52.192;9.886;2023-12-04T06:21:18;9.73;;;8.70;;
13951;SDS011;39535;52.192;9.886;2023-12-04T06:23:45;9.60;;;8.70;;
13951;SDS011;39535;52.192;9.886;2023-12-04T06:26:13;9.77;;;8.87;;
13951;SDS011;39535;52.192;9.886;2023-12-04T06:28:40;8.93;;;8.03;;
13951;SDS011;39535;52.192;9.886;2023-12-04T06:31:07;7.63;;;6.93;;
13951;SDS011;39535;52.192;9.886;2023-12-04T06:33:35;9.53;;;8.63;;
13951;SDS011;39535;52.192;9.886;2023-12-04T06:36:02;8.40;;;7.60;;
13951;SDS011;39535;52.192;9.886;2023-12-04T06:38:31;9.27;;;8.37;;
13951;SDS011;39535;52.192;9.886;2023-12-04T06:41:00;10.60;;;9.60;;
13951;SDS011;39535;52.192;9.886;2023-12-04T06:43:28;10.23;;;9.33;;
13951;SDS011;39535;52.192;9.886;2023-12-04T06:45:55;9.70;;;8.50;;
13951;SDS011;39535;52.192;9.886;2023-12-04T06:48:24;10.10;;;9.10;;
13951;SDS011;39535;52.192;9.886;2023-12-04T06:50:51;8.57;;;7.67;;
13951;SDS011;39535;52.192;9.886;2023-12-04T06:53:17;9.77;;;8.47;;
13951;SDS011;39535;52.192;9.886;2023-12-04T06:55:43;9.03;;;8.23;;
13951;SDS011;39535;52.192;9.886;2023-12-04T06:58:10;9.67;;;8.77;;
13951;SDS011;39535;52.192;9.886;2023-12-04T07:00:37;9.17;;;8.27;;
13951;SDS011;39535;52.192;9.886;2023-12-04T07:03:04;9.83;;;8.93;;
13951;SDS011;39535;52.192;9.886;2023-12-04T07:05:30;9.60;;;8.60;;
13951;SDS011;39535;52.192;9.886;2023-12-04T07:07:56;9.70;;;8.70;;
13951;SDS011;39535;52.192;9.886;2023-12-04T07:10:23;9.00;;;8.20;;
13951;SDS011;39535;52.192;9.886;2023-12-04T07:12:49;9.73;;;8.73;;
13951;SDS011;39535;52.192;9.886;2023-12-04T07:15:15;9.10;;;8.30;;
13951;SDS011;39535;52.192;9.886;2023-12-04T07:17:45;8.77;;;7.97;;
13951;SDS011;39535;52.192;9.886;2023-12-04T07:20:12;9.43;;;7.90;;
13951;SDS011;39535;52.192;9.886;2023-12-04T07:22:38;8.63;;;7.83;;
13951;SDS011;39535;52.192;9.886;2023-12-04T07:25:05;9.27;;;8.47;;
13951;SDS011;39535;52.192;9.886;2023-12-04T07:27:32;9.00;;;8.17;;
13951;SDS011;39535;52.192;9.886;2023-12-04T07:29:59;8.80;;;7.93;;
13951;SDS011;39535;52.192;9.886;2023-12-04T07:32:25;9.43;;;8.53;;
13951;SDS011;39535;52.192;9.886;2023-12-04T07:34:53;9.43;;;8.43;;
13951;SDS011;39535;52.192;9.886;2023-12-04T07:37:19;8.57;;;7.67;;
13951;SDS011;39535;52.192;9.886;2023-12-04T07:39:45;9.50;;;8.60;;
13951;SDS011;39535;52.192;9.886;2023-12-04T07:42:12;8.20;;;7.43;;
13951;SDS011;39535;52.192;9.886;2023-12-04T07:44:38;10.33;;;8.83;;
13951;SDS011;39535;52.192;9.886;2023-12-04T07:47:04;9.60;;;8.63;;
13951;SDS011;39535;52.192;9.886;2023-12-04T07:49:31;10.93;;;8.30;;
13951;SDS011;39535;52.192;9.886;2023-12-04T07:51:58;8.87;;;8.07;;
13951;SDS011;39535;52.192;9.886;2023-12-04T07:54:25;8.87;;;8.00;;
13951;SDS011;39535;52.192;9.886;2023-12-04T07:56:52;8.60;;;7.80;;
13951;SDS011;39535;52.192;9.886;2023-12-04T07:59:18;9.00;;;8.10;;
13951;SDS011;39535;52.192;9.886;2023-12-04T08:01:45;8.43;;;7.70;;
13951;SDS011;39535;52.192;9.886;2023-12-04T08:04:11;8.70;;;7.80;;
13951;SDS011;39535;52.192;9.886;2023-12-04T08:06:38;8.83;;;8.03;;
13951;SDS011;39535;52.192;9.886;2023-12-04T08:09:06;8.97;;;8.10;;
13951;SDS011;39535;52.192;9.886;2023-12-04T08:11:35;8.73;;;7.93;;
13951;SDS011;39535;52.192;9.886;2023-12-04T08:14:01;9.57;;;8.67;;
13951;SDS011;39535;52.192;9.886;2023-12-04T08:16:28;9.47;;;8.03;;
13951;SDS011;39535;52.192;9.886;2023-12-04T08:18:54;8.70;;;7.80;;
13951;SDS011;39535;52.192;9.886;2023-12-04T08:21:21;10.40;;;9.40;;
13951;SDS011;39535;52.192;9.886;2023-12-04T08:23:48;14.47;;;13.07;;
13951;SDS011;39535;52.192;9.886;2023-12-04T08:26:21;9.40;;;8.50;;
13951;SDS011;39535;52.192;9.886;2023-12-04T08:28:49;9.27;;;8.37;;
13951;SDS011;39535;52.192;9.886;2023-12-04T08:31:15;11.63;;;10.60;;
13951;SDS011;39535;52.192;9.886;2023-12-04T08:33:42;11.13;;;10.13;;
13951;SDS011;39535;52.192;9.886;2023-12-04T08:36:09;9.53;;;8.63;;
13951;SDS011;39535;52.192;9.886;2023-12-04T08:38:36;9.83;;;8.93;;
13951;SDS011;39535;52.192;9.886;2023-12-04T08:41:03;13.17;;;12.00;;
13951;SDS011;39535;52.192;9.886;2023-12-04T08:43:31;15.77;;;14.37;;
13951;SDS011;39535;52.192;9.886;2023-12-04T08:45:57;11.07;;;10.07;;
13951;SDS011;39535;52.192;9.886;2023-12-04T08:48:23;9.07;;;8.17;;
13951;SDS011;39535;52.192;9.886;2023-12-04T08:50:50;8.90;;;8.10;;
13951;SDS011;39535;52.192;9.886;2023-12-04T08:53:16;9.23;;;8.33;;
13951;SDS011;39535;52.192;9.886;2023-12-04T08:55:42;10.37;;;9.40;;
13951;SDS011;39535;52.192;9.886;2023-12-04T08:58:09;9.43;;;8.53;;
13951;SDS011;39535;52.192;9.886;2023-12-04T09:00:37;10.17;;;9.27;;
13951;SDS011;39535;52.192;9.886;2023-12-04T09:03:07;10.33;;;9.43;;
13951;SDS011;39535;52.192;9.886;2023-12-04T09:05:34;8.57;;;7.77;;
13951;SDS011;39535;52.192;9.886;2023-12-04T09:08:00;9.13;;;8.33;;
13951;SDS011;39535;52.192;9.886;2023-12-04T09:10:26;9.17;;;8.37;;
13951;SDS011;39535;52.192;9.886;2023-12-04T09:12:53;9.47;;;8.57;;
13951;SDS011;39535;52.192;9.886;2023-12-04T09:15:19;10.10;;;9.20;;
13951;SDS011;39535;52.192;9.886;2023-12-04T09:17:47;8.93;;;8.07;;
13951;SDS011;39535;52.192;9.886;2023-12-04T09:20:13;9.47;;;8.60;;
13951;SDS011;39535;52.192;9.886;2023-12-04T09:22:40;9.17;;;8.27;;
13951;SDS011;39535;52.192;9.886;2023-12-04T09:25:06;9.83;;;8.93;;
13951;SDS011;39535;52.192;9.886;2023-12-04T09:27:33;15.20;;;14.00;;
13951;SDS011;39535;52.192;9.886;2023-12-04T09:30:00;8.90;;;8.13;;
13951;SDS011;39535;52.192;9.886;2023-12-04T09:32:27;9.20;;;8.40;;
13951;SDS011;39535;52.192;9.886;2023-12-04T09:34:54;8.50;;;7.70;;
13951;SDS011;39535;52.192;9.886;2023-12-04T09:37:20;9.80;;;8.90;;
13951;SDS011;39535;52.192;9.886;2023-12-04T09:39:47;9.07;;;8.27;;
13951;SDS011;39535;52.192;9.886;2023-12-04T09:42:14;9.67;;;8.77;;
13951;SDS011;39535;52.192;9.886;2023-12-04T09:44:43;8.87;;;8.07;;
13951;SDS011;39535;52.192;9.886;2023-12-04T09:47:09;11.17;;;9.90;;
13951;SDS011;39535;52.192;9.886;2023-12-04T09:49:36;9.23;;;8.43;;
13951;SDS011;39535;52.192;9.886;2023-12-04T09:52:05;10.00;;;9.00;;
13951;SDS011;39535;52.192;9.886;2023-12-04T09:54:32;9.17;;;8.27;;
13951;SDS011;39535;52.192;9.886;2023-12-04T09:57:01;8.10;;;7.30;;
13951;SDS011;39535;52.192;9.886;2023-12-04T09:59:28;9.30;;;8.50;;
13951;SDS011;39535;52.192;9.886;2023-12-04T10:01:56;9.20;;;8.30;;
13951;SDS011;39535;52.192;9.886;2023-12-04T10:04:23;8.73;;;7.93;;
13951;SDS011;39535;52.192;9.886;2023-12-04T10:06:50;8.17;;;7.37;;
13951;SDS011;39535;52.192;9.886;2023-12-04T10:09:18;8.43;;;7.70;;
13951;SDS011;39535;52.192;9.886;2023-12-04T10:11:47;10.07;;;9.17;;
13951;SDS011;39535;52.192;9.886;2023-12-04T10:14:16;8.83;;;8.03;;
13951;SDS011;39535;52.192;9.886;2023-12-04T10:16:44;8.10;;;7.40;;
13951;SDS011;39535;52.192;9.886;2023-12-04T10:19:14;8.27;;;7.57;;
13951;SDS011;39535;52.192;9.886;2023-12-04T10:21:42;8.40;;;7.22;;
13951;SDS011;39535;52.192;9.886;2023-12-04T10:24:09;9.67;;;8.77;;
13951;SDS011;39535;52.192;9.886;2023-12-04T10:26:37;10.90;;;9.90;;
13951;SDS011;39535;52.192;9.886;2023-12-04T10:29:04;7.97;;;7.27;;
13951;SDS011;39535;52.192;9.886;2023-12-04T10:31:31;7.80;;;7.10;;
13951;SDS011;39535;52.192;9.886;2023-12-04T10:33:58;7.63;;;6.93;;
13951;SDS011;39535;52.192;9.886;2023-12-04T10:36:25;8.80;;;8.00;;
13951;SDS011;39535;52.192;9.886;2023-12-04T10:38:57;8.97;;;8.10;;
13951;SDS011;39535;52.192;9.886;2023-12-04T10:41:24;9.07;;;7.23;;
13951;SDS011;39535;52.192;9.886;2023-12-04T10:43:52;8.20;;;7.40;;
13951;SDS011;39535;52.192;9.886;2023-12-04T10:46:18;9.03;;;8.23;;
13951;SDS011;39535;52.192;9.886;2023-12-04T10:48:46;8.17;;;7.43;;
13951;SDS011;39535;52.192;9.886;2023-12-04T10:51:14;8.00;;;7.30;;
13951;SDS011;39535;52.192;9.886;2023-12-04T10:53:42;8.13;;;7.43;;
13951;SDS011;39535;52.192;9.886;2023-12-04T10:56:10;8.03;;;7.33;;
13951;SDS011;39535;52.192;9.886;2023-12-04T10:58:42;8.43;;;7.63;;
13951;SDS011;39535;52.192;9.886;2023-12-04T11:01:14;7.87;;;7.17;;
13951;SDS011;39535;52.192;9.886;2023-12-04T11:03:43;7.60;;;6.90;;
13951;SDS011;39535;52.192;9.886;2023-12-04T11:06:11;7.60;;;7.00;;
13951;SDS011;39535;52.192;9.886;2023-12-04T11:08:38;7.27;;;6.67;;
13951;SDS011;39535;52.192;9.886;2023-12-04T11:11:08;8.27;;;7.53;;
13951;SDS011;39535;52.192;9.886;2023-12-04T11:13:39;7.97;;;7.27;;
13951;SDS011;39535;52.192;9.886;2023-12-04T11:16:09;7.87;;;7.17;;
13951;SDS011;39535;52.192;9.886;2023-12-04T11:18:40;7.73;;;7.03;;
13951;SDS011;39535;52.192;9.886;2023-12-04T11:21:10;7.43;;;6.73;;
13951;SDS011;39535;52.192;9.886;2023-12-04T11:23:37;6.93;;;6.30;;
13951;SDS011;39535;52.192;9.886;2023-12-04T11:26:04;7.57;;;6.93;;
13951;SDS011;39535;52.192;9.886;2023-12-04T11:28:32;7.77;;;7.07;;
13951;SDS011;39535;52.192;9.886;2023-12-04T11:31:01;7.23;;;6.63;;
13951;SDS011;39535;52.192;9.886;2023-12-04T11:33:28;7.17;;;6.47;;
13951;SDS011;39535;52.192;9.886;2023-12-04T11:36:07;14.43;;;13.03;;
13951;SDS011;39535;52.192;9.886;2023-12-04T11:38:35;11.27;;;10.27;;
13951;SDS011;39535;52.192;9.886;2023-12-04T11:41:11;7.20;;;6.60;;
13951;SDS011;39535;52.192;9.886;2023-12-04T11:43:40;6.87;;;6.27;;
13951;SDS011;39535;52.192;9.886;2023-12-04T11:46:08;8.43;;;7.63;;
13951;SDS011;39535;52.192;9.886;2023-12-04T11:48:36;9.17;;;8.10;;
13951;SDS011;39535;52.192;9.886;2023-12-04T11:51:02;7.30;;;6.70;;
13951;SDS011;39535;52.192;9.886;2023-12-04T11:53:30;6.77;;;6.17;;
13951;SDS011;39535;52.192;9.886;2023-12-04T11:55:57;7.53;;;6.83;;
13951;SDS011;39535;52.192;9.886;2023-12-04T11:58:23;6.97;;;6.37;;
13951;SDS011;39535;52.192;9.886;2023-12-04T12:00:50;6.50;;;5.90;;
13951;SDS011;39535;52.192;9.886;2023-12-04T12:03:17;7.07;;;6.47;;
13951;SDS011;39535;52.192;9.886;2023-12-04T12:05:44;7.10;;;6.50;;
13951;SDS011;39535;52.192;9.886;2023-12-04T12:08:10;6.80;;;6.20;;
13951;SDS011;39535;52.192;9.886;2023-12-04T12:10:38;6.70;;;6.10;;
13951;SDS011;39535;52.192;9.886;2023-12-04T12:13:04;6.57;;;5.97;;
13951;SDS011;39535;52.192;9.886;2023-12-04T12:15:31;7.40;;;6.70;;
13951;SDS011;39535;52.192;9.886;2023-12-04T12:17:58;6.60;;;6.00;;
13951;SDS011;39535;52.192;9.886;2023-12-04T12:20:25;7.20;;;6.50;;
13951;SDS011;39535;52.192;9.886;2023-12-04T12:22:51;6.73;;;6.13;;
13951;SDS011;39535;52.192;9.886;2023-12-04T12:25:18;6.47;;;5.70;;
13951;SDS011;39535;52.192;9.886;2023-12-04T12:27:46;6.30;;;5.70;;
13951;SDS011;39535;52.192;9.886;2023-12-04T12:30:13;6.00;;;5.50;;
13951;SDS011;39535;52.192;9.886;2023-12-04T12:32:39;6.80;;;6.20;;
13951;SDS011;39535;52.192;9.886;2023-12-04T12:35:06;6.10;;;5.50;;
13951;SDS011;39535;52.192;9.886;2023-12-04T12:37:33;6.80;;;6.20;;
13951;SDS011;39535;52.192;9.886;2023-12-04T12:40:00;7.27;;;6.67;;
13951;SDS011;39535;52.192;9.886;2023-12-04T12:42:29;6.43;;;5.83;;
13951;SDS011;39535;52.192;9.886;2023-12-04T12:44:59;8.77;;;8.07;;
13951;SDS011;39535;52.192;9.886;2023-12-04T12:47:27;9.20;;;8.40;;
13951;SDS011;39535;52.192;9.886;2023-12-04T12:49:53;6.90;;;6.30;;
13951;SDS011;39535;52.192;9.886;2023-12-04T12:52:19;6.53;;;5.93;;
13951;SDS011;39535;52.192;9.886;2023-12-04T12:54:46;7.73;;;6.93;;
13951;SDS011;39535;52.192;9.886;2023-12-04T12:57:13;7.03;;;6.00;;
13951;SDS011;39535;52.192;9.886;2023-12-04T12:59:40;7.67;;;6.97;;
13951;SDS011;39535;52.192;9.886;2023-12-04T13:02:08;6.47;;;5.87;;
13951;SDS011;39535;52.192;9.886;2023-12-04T13:04:35;6.87;;;6.27;;
13951;SDS011;39535;52.192;9.886;2023-12-04T13:07:01;6.70;;;6.10;;
13951;SDS011;39535;52.192;9.886;2023-12-04T13:09:28;7.03;;;6.53;;
13951;SDS011;39535;52.192;9.886;2023-12-04T13:11:55;7.13;;;6.53;;
13951;SDS011;39535;52.192;9.886;2023-12-04T13:14:21;6.93;;;6.40;;
13951;SDS011;39535;52.192;9.886;2023-12-04T13:16:48;5.80;;;5.30;;
13951;SDS011;39535;52.192;9.886;2023-12-04T13:19:16;6.37;;;5.77;;
13951;SDS011;39535;52.192;9.886;2023-12-04T13:21:42;6.10;;;5.60;;
13951;SDS011;39535;52.192;9.886;2023-12-04T13:24:09;5.30;;;4.90;;
13951;SDS011;39535;52.192;9.886;2023-12-04T13:26:37;5.83;;;5.33;;
13951;SDS011;39535;52.192;9.886;2023-12-04T13:29:03;6.70;;;6.10;;
13951;SDS011;39535;52.192;9.886;2023-12-04T13:31:31;6.43;;;5.93;;
13951;SDS011;39535;52.192;9.886;2023-12-04T13:33:57;6.00;;;5.50;;
13951;SDS011;39535;52.192;9.886;2023-12-04T13:36:25;5.60;;;5.10;;
13951;SDS011;39535;52.192;9.886;2023-12-04T13:38:52;5.13;;;4.73;;
13951;SDS011;39535;52.192;9.886;2023-12-04T13:41:18;6.30;;;5.70;;
13951;SDS011;39535;52.192;9.886;2023-12-04T13:43:59;5.80;;;5.37;;
13951;SDS011;39535;52.192;9.886;2023-12-04T13:46:27;7.10;;;4.93;;
13951;SDS011;39535;52.192;9.886;2023-12-04T13:48:54;5.20;;;4.80;;
13951;SDS011;39535;52.192;9.886;2023-12-04T13:51:21;5.97;;;5.47;;
13951;SDS011;39535;52.192;9.886;2023-12-04T13:53:48;5.57;;;5.07;;
13951;SDS011;39535;52.192;9.886;2023-12-04T13:56:20;5.83;;;5.33;;
13951;SDS011;39535;52.192;9.886;2023-12-04T13:59:06;4.80;;;4.40;;
13951;SDS011;39535;52.192;9.886;2023-12-04T14:01:32;5.03;;;4.63;;
13951;SDS011;39535;52.192;9.886;2023-12-04T14:03:59;5.43;;;4.40;;
13951;SDS011;39535;52.192;9.886;2023-12-04T14:06:26;5.13;;;4.63;;
13951;SDS011;39535;52.192;9.886;2023-12-04T14:08:55;5.87;;;5.27;;
13951;SDS011;39535;52.192;9.886;2023-12-04T14:11:21;5.53;;;5.03;;
13951;SDS011;39535;52.192;9.886;2023-12-04T14:13:48;5.00;;;4.60;;
13951;SDS011;39535;52.192;9.886;2023-12-04T14:16:14;5.10;;;4.60;;
13951;SDS011;39535;52.192;9.886;2023-12-04T14:18:41;5.70;;;5.07;;
13951;SDS011;39535;52.192;9.886;2023-12-04T14:21:07;5.87;;;4.70;;
13951;SDS011;39535;52.192;9.886;2023-12-04T14:23:34;5.60;;;5.10;;
13951;SDS011;39535;52.192;9.886;2023-12-04T14:26:02;6.07;;;5.47;;
13951;SDS011;39535;52.192;9.886;2023-12-04T14:28:28;5.63;;;5.13;;
13951;SDS011;39535;52.192;9.886;2023-12-04T14:30:55;5.73;;;5.23;;
13951;SDS011;39535;52.192;9.886;2023-12-04T14:33:21;4.80;;;4.40;;
13951;SDS011;39535;52.192;9.886;2023-12-04T14:35:48;5.80;;;4.93;;
13951;SDS011;39535;52.192;9.886;2023-12-04T14:38:14;4.33;;;3.93;;
13951;SDS011;39535;52.192;9.886;2023-12-04T14:40:40;5.73;;;5.23;;
13951;SDS011;39535;52.192;9.886;2023-12-04T14:43:08;4.53;;;4.13;;